Time;durP1;ratioP1;P1;durP2;ratioP2;P2;SDS_P1;SDS_P2;PMS_P1;PMS_P2;Temp;Humidity;BMP_temperature;BMP_pressure;BME280_temperature;BME280_humidity;BME280_pressure;Samples;Min_cycle;Max_cycle;Signal;HPM_P1;HPM_P2
2022/10/31 00:01:28;;;;;;;;;15.00;11.75;;;;;;;;5081883;28;9662;-79
2022/10/31 00:03:55;;;;;;;;;12.00;11.75;;;;;;;;5065466;28;9734;-79
2022/10/31 00:06:25;;;;;;;;;12.25;11.00;;;;;;;;5082830;28;9375;-79
2022/10/31 00:08:55;;;;;;;;;14.50;14.50;;;;;;;;5065050;28;9540;-79
2022/10/31 00:11:23;;;;;;;;;12.50;12.00;;;;;;;;5082028;28;9594;-78
2022/10/31 00:13:50;;;;;;;;;14.00;14.00;;;;;;;;5081462;28;9540;-79
2022/10/31 00:16:19;;;;;;;;;15.25;13.00;;;;;;;;5065214;28;9764;-78
2022/10/31 00:18:50;;;;;;;;;15.75;13.75;;;;;;;;5047588;28;9623;-79
2022/10/31 00:21:18;;;;;;;;;14.00;12.25;;;;;;;;5062473;28;9661;-79
2022/10/31 00:23:47;;;;;;;;;14.75;14.75;;;;;;;;5081393;28;9859;-78
2022/10/31 00:26:15;;;;;;;;;20.25;17.25;;;;;;;;5082281;28;9835;-79
2022/10/31 00:28:42;;;;;;;;;14.50;13.00;;;;;;;;5079211;28;9784;-79
2022/10/31 00:31:11;;;;;;;;;17.00;15.25;;;;;;;;5083736;28;9918;-79
2022/10/31 00:33:39;;;;;;;;;11.75;11.75;;;;;;;;5081918;28;9827;-79
2022/10/31 00:36:09;;;;;;;;;22.25;17.00;;;;;;;;5081575;28;9841;-79
2022/10/31 00:38:36;;;;;;;;;21.00;17.00;;;;;;;;5081712;28;9929;-79
2022/10/31 00:41:06;;;;;;;;;12.50;12.50;;;;;;;;5080342;28;10172;-79
2022/10/31 00:43:33;;;;;;;;;15.50;15.50;;;;;;;;5083096;28;10091;-79
2022/10/31 00:46:01;;;;;;;;;19.00;17.75;;;;;;;;5079085;28;10095;-79
2022/10/31 00:48:28;;;;;;;;;19.00;17.50;;;;;;;;5082939;28;10004;-79
2022/10/31 00:50:56;;;;;;;;;14.75;12.00;;;;;;;;5081810;28;10059;-78
2022/10/31 00:53:24;;;;;;;;;13.75;12.00;;;;;;;;5065805;28;10007;-77
2022/10/31 00:55:51;;;;;;;;;17.50;17.50;;;;;;;;5083997;28;10110;-78
2022/10/31 00:58:21;;;;;;;;;15.50;15.50;;;;;;;;5081236;28;10182;-77
2022/10/31 01:00:54;;;;;;;;;15.00;13.75;;;;;;;;5066695;28;10153;-77
2022/10/31 01:03:22;;;;;;;;;19.25;18.25;;;;;;;;5080713;28;10113;-78
2022/10/31 01:05:58;;;;;;;;;19.00;18.75;;;;;;;;5081476;28;10073;-78
2022/10/31 01:08:26;;;;;;;;;15.00;15.00;;;;;;;;5081147;28;10180;-78
2022/10/31 01:11:07;;;;;;;;;11.75;11.75;;;;;;;;5082651;28;10322;-77
2022/10/31 01:13:36;;;;;;;;;16.25;16.25;;;;;;;;5081156;28;10254;-80
2022/10/31 01:16:08;;;;;;;;;16.50;16.50;;;;;;;;5081942;28;10331;-79
2022/10/31 01:18:37;;;;;;;;;14.00;12.25;;;;;;;;5080591;28;10234;-78
2022/10/31 01:21:10;;;;;;;;;17.50;17.50;;;;;;;;5081264;28;10256;-79
2022/10/31 01:23:37;;;;;;;;;16.00;15.50;;;;;;;;5062298;28;10247;-79
2022/10/31 01:26:08;;;;;;;;;16.50;13.75;;;;;;;;5061163;28;10356;-79
2022/10/31 01:28:38;;;;;;;;;16.75;14.50;;;;;;;;5081568;28;10271;-79
2022/10/31 01:31:07;;;;;;;;;17.25;14.75;;;;;;;;5082388;28;10346;-79
2022/10/31 01:33:35;;;;;;;;;15.25;15.25;;;;;;;;5082316;28;10159;-79
2022/10/31 01:36:02;;;;;;;;;12.00;12.00;;;;;;;;5080383;28;10249;-80
2022/10/31 01:38:30;;;;;;;;;18.00;14.75;;;;;;;;5064112;28;10090;-79
2022/10/31 01:40:57;;;;;;;;;15.00;13.00;;;;;;;;5065421;28;10338;-77
2022/10/31 01:43:25;;;;;;;;;15.25;15.25;;;;;;;;5081123;28;10253;-77
2022/10/31 01:45:55;;;;;;;;;17.00;17.00;;;;;;;;5081747;28;10260;-78
2022/10/31 01:48:26;;;;;;;;;21.00;21.00;;;;;;;;5061715;28;10323;-79
2022/10/31 01:50:55;;;;;;;;;15.75;13.00;;;;;;;;5063100;28;10375;-78
2022/10/31 01:53:24;;;;;;;;;18.00;16.50;;;;;;;;5080530;28;10393;-77
2022/10/31 01:55:52;;;;;;;;;16.75;14.50;;;;;;;;5077569;28;10544;-79
2022/10/31 01:58:25;;;;;;;;;17.50;17.00;;;;;;;;5080487;28;10385;-78
2022/10/31 02:00:58;;;;;;;;;27.25;21.25;;;;;;;;5080018;28;11192;-79
2022/10/31 02:03:27;;;;;;;;;15.00;14.25;;;;;;;;5081161;28;10472;-79
2022/10/31 02:05:56;;;;;;;;;20.50;20.25;;;;;;;;5079506;28;10387;-79
2022/10/31 02:08:27;;;;;;;;;19.25;19.25;;;;;;;;5064163;28;10403;-78
2022/10/31 02:10:56;;;;;;;;;13.75;13.75;;;;;;;;5080626;28;10460;-78
2022/10/31 02:13:24;;;;;;;;;27.50;20.25;;;;;;;;5089694;28;10332;-77
2022/10/31 02:16:00;;;;;;;;;21.75;21.75;;;;;;;;5078881;28;10584;-77
2022/10/31 02:18:29;;;;;;;;;21.50;21.50;;;;;;;;5064503;28;10577;-78
2022/10/31 02:21:03;;;;;;;;;25.00;20.25;;;;;;;;5075539;28;10358;-76
2022/10/31 02:24:00;;;;;;;;;24.00;21.25;;;;;;;;5085099;28;10595;-78
2022/10/31 02:26:46;;;;;;;;;25.00;25.00;;;;;;;;5068754;28;10731;-78
2022/10/31 02:29:39;;;;;;;;;20.00;20.00;;;;;;;;5084004;28;10597;-78
2022/10/31 02:32:12;;;;;;;;;18.00;18.00;;;;;;;;5082682;28;10406;-79
2022/10/31 02:34:45;;;;;;;;;22.50;20.00;;;;;;;;5083217;28;10415;-79
2022/10/31 02:37:15;;;;;;;;;17.50;16.50;;;;;;;;5082213;28;10414;-79
2022/10/31 02:39:48;;;;;;;;;20.75;19.25;;;;;;;;5082448;28;10508;-79
2022/10/31 02:42:20;;;;;;;;;22.25;20.00;;;;;;;;5085485;28;10499;-78
2022/10/31 02:44:51;;;;;;;;;19.50;19.25;;;;;;;;5085917;28;10388;-79
2022/10/31 02:47:25;;;;;;;;;21.00;17.00;;;;;;;;5084914;28;10272;-79
2022/10/31 02:49:57;;;;;;;;;18.50;16.75;;;;;;;;5082866;28;10237;-79
2022/10/31 02:52:28;;;;;;;;;21.50;18.50;;;;;;;;5085512;28;10109;-79
2022/10/31 02:54:55;;;;;;;;;20.75;20.75;;;;;;;;5083682;28;10496;-79
2022/10/31 02:57:26;;;;;;;;;14.75;13.50;;;;;;;;5084739;28;10336;-79
2022/10/31 02:59:55;;;;;;;;;24.75;21.00;;;;;;;;5083816;27;10109;-78
2022/10/31 03:05:39;;;;;;;;;20.50;20.50;;;;;;;;5131383;27;13590;-79
2022/10/31 03:08:13;;;;;;;;;25.50;22.25;;;;;;;;5135933;27;10739;-79
2022/10/31 03:10:44;;;;;;;;;15.00;15.00;;;;;;;;5137262;27;9697;-79
2022/10/31 03:13:18;;;;;;;;;18.00;17.25;;;;;;;;5137034;27;9688;-79
2022/10/31 03:15:48;;;;;;;;;19.75;19.75;;;;;;;;5134522;27;9676;-78
2022/10/31 03:18:20;;;;;;;;;13.50;13.00;;;;;;;;5119348;27;9675;-79
2022/10/31 03:20:54;;;;;;;;;16.00;16.00;;;;;;;;5121407;27;9713;-79
2022/10/31 03:23:24;;;;;;;;;18.25;16.50;;;;;;;;5123046;27;9681;-75
2022/10/31 03:25:53;;;;;;;;;18.75;18.75;;;;;;;;5134283;27;9801;-79
2022/10/31 03:28:25;;;;;;;;;16.75;15.50;;;;;;;;5117563;27;9675;-79
2022/10/31 03:30:53;;;;;;;;;20.50;15.50;;;;;;;;5120293;27;9785;-79
2022/10/31 03:33:28;;;;;;;;;18.50;17.75;;;;;;;;5133890;27;9589;-79
2022/10/31 03:35:59;;;;;;;;;20.25;18.25;;;;;;;;5134154;27;9684;-79
2022/10/31 03:38:27;;;;;;;;;18.50;17.00;;;;;;;;5115496;27;10526;-79
2022/10/31 03:40:57;;;;;;;;;18.00;17.00;;;;;;;;5140351;27;9759;-78
2022/10/31 03:43:29;;;;;;;;;15.25;15.25;;;;;;;;5120021;27;9621;-79
2022/10/31 03:45:57;;;;;;;;;17.25;16.75;;;;;;;;5135287;27;10365;-79
2022/10/31 03:48:25;;;;;;;;;21.00;19.75;;;;;;;;5137336;27;10106;-78
2022/10/31 03:50:58;;;;;;;;;16.00;15.75;;;;;;;;5117916;27;9831;-78
2022/10/31 03:53:31;;;;;;;;;15.75;15.75;;;;;;;;5134132;27;9605;-79
2022/10/31 03:56:04;;;;;;;;;22.00;17.25;;;;;;;;5104765;27;9587;-79
2022/10/31 03:58:37;;;;;;;;;13.75;13.75;;;;;;;;5134827;27;9755;-79
2022/10/31 04:01:09;;;;;;;;;20.50;17.75;;;;;;;;5139081;27;9504;-78
2022/10/31 04:03:39;;;;;;;;;15.75;15.75;;;;;;;;5154367;27;9546;-78
2022/10/31 04:06:10;;;;;;;;;19.75;17.50;;;;;;;;5139096;27;9621;-78
2022/10/31 04:08:41;;;;;;;;;13.67;12.00;;;;;;;;5140696;27;9682;-78
2022/10/31 04:11:11;;;;;;;;;13.00;13.00;;;;;;;;5141480;27;9391;-78
2022/10/31 04:13:41;;;;;;;;;16.00;16.00;;;;;;;;5140503;27;9586;-78
2022/10/31 04:16:10;;;;;;;;;20.00;15.00;;;;;;;;5130834;27;9471;-78
2022/10/31 04:18:38;;;;;;;;;17.25;16.25;;;;;;;;5124643;27;9581;-78
2022/10/31 04:21:09;;;;;;;;;12.33;12.33;;;;;;;;5128654;27;9636;-78
2022/10/31 04:23:37;;;;;;;;;18.75;16.25;;;;;;;;5125219;27;9497;-79
2022/10/31 04:26:05;;;;;;;;;17.25;16.75;;;;;;;;5124987;27;9562;-78
2022/10/31 04:28:33;;;;;;;;;18.00;16.25;;;;;;;;5088787;27;9466;-78
2022/10/31 04:31:01;;;;;;;;;16.25;16.25;;;;;;;;5125980;27;10164;-78
2022/10/31 04:33:29;;;;;;;;;14.00;14.00;;;;;;;;5106913;27;9469;-77
2022/10/31 04:35:57;;;;;;;;;14.75;14.75;;;;;;;;5127640;27;9406;-78
2022/10/31 04:38:26;;;;;;;;;20.00;20.00;;;;;;;;5105195;27;9517;-79
2022/10/31 04:40:54;;;;;;;;;16.00;16.00;;;;;;;;5126514;27;9468;-79
2022/10/31 04:43:22;;;;;;;;;17.33;15.00;;;;;;;;5124865;27;9489;-78
2022/10/31 04:45:49;;;;;;;;;16.33;16.00;;;;;;;;5126365;27;9295;-78
2022/10/31 04:48:17;;;;;;;;;13.67;13.00;;;;;;;;5124192;27;9233;-78
2022/10/31 04:50:44;;;;;;;;;13.67;13.33;;;;;;;;5127564;27;9241;-79
2022/10/31 04:53:12;;;;;;;;;17.33;17.33;;;;;;;;5125961;27;9423;-79
2022/10/31 04:55:41;;;;;;;;;18.67;15.00;;;;;;;;5106400;27;9291;-79
2022/10/31 04:58:08;;;;;;;;;14.00;13.00;;;;;;;;5102529;27;9440;-79
2022/10/31 05:00:36;;;;;;;;;21.33;18.67;;;;;;;;5103185;27;9170;-77
2022/10/31 05:03:04;;;;;;;;;10.33;10.33;;;;;;;;5123422;27;10129;-78
2022/10/31 05:05:32;;;;;;;;;12.67;12.67;;;;;;;;5124971;27;9512;-77
2022/10/31 05:08:00;;;;;;;;;14.33;14.33;;;;;;;;5123832;27;9436;-78
2022/10/31 05:10:29;;;;;;;;;16.00;14.67;;;;;;;;5103108;27;9864;-78
2022/10/31 05:12:59;;;;;;;;;18.33;16.67;;;;;;;;5124300;27;9328;-77
2022/10/31 05:15:28;;;;;;;;;16.33;16.00;;;;;;;;5126936;27;10094;-78
2022/10/31 05:17:56;;;;;;;;;14.00;13.00;;;;;;;;5126314;27;9208;-78
2022/10/31 05:20:26;;;;;;;;;22.67;20.67;;;;;;;;5126241;27;9238;-78
2022/10/31 05:22:55;;;;;;;;;18.33;17.00;;;;;;;;5124498;27;9368;-77
2022/10/31 05:25:26;;;;;;;;;13.00;13.00;;;;;;;;5122724;27;9302;-78
2022/10/31 05:27:54;;;;;;;;;14.67;14.67;;;;;;;;5122111;27;9271;-77
2022/10/31 05:30:25;;;;;;;;;19.33;16.00;;;;;;;;5126171;27;9329;-78
2022/10/31 05:32:53;;;;;;;;;18.00;16.33;;;;;;;;5123233;27;9274;-78
2022/10/31 05:35:22;;;;;;;;;15.00;15.00;;;;;;;;5124349;27;9318;-77
2022/10/31 05:37:51;;;;;;;;;14.67;14.67;;;;;;;;5123163;27;9064;-77
2022/10/31 05:40:21;;;;;;;;;14.00;14.00;;;;;;;;5122704;27;9236;-77
2022/10/31 05:42:53;;;;;;;;;15.33;14.00;;;;;;;;5104994;27;9231;-79
2022/10/31 05:45:23;;;;;;;;;16.00;16.00;;;;;;;;5129175;27;9236;-79
2022/10/31 05:47:56;;;;;;;;;17.33;17.33;;;;;;;;5125585;27;9246;-79
2022/10/31 05:50:25;;;;;;;;;15.00;13.33;;;;;;;;5122029;27;9210;-79
2022/10/31 05:52:57;;;;;;;;;17.33;15.67;;;;;;;;5122568;27;9300;-79
2022/10/31 05:55:25;;;;;;;;;17.33;17.33;;;;;;;;5126634;27;9896;-78
2022/10/31 05:57:53;;;;;;;;;15.33;15.33;;;;;;;;5103976;27;10109;-79
2022/10/31 06:00:21;;;;;;;;;15.00;15.00;;;;;;;;5107081;27;9350;-78
2022/10/31 06:02:51;;;;;;;;;15.00;15.00;;;;;;;;5104651;27;9298;-79
2022/10/31 06:05:18;;;;;;;;;13.33;13.33;;;;;;;;5122907;27;10043;-79
2022/10/31 06:07:46;;;;;;;;;19.33;15.00;;;;;;;;5102639;27;9356;-79
2022/10/31 06:10:14;;;;;;;;;16.67;14.00;;;;;;;;5105027;27;9189;-79
2022/10/31 06:12:41;;;;;;;;;14.67;14.67;;;;;;;;5104878;27;9266;-79
2022/10/31 06:15:10;;;;;;;;;10.67;10.00;;;;;;;;5122438;27;9068;-79
2022/10/31 06:17:39;;;;;;;;;13.33;13.33;;;;;;;;5128042;27;9126;-79
2022/10/31 06:20:10;;;;;;;;;14.67;14.67;;;;;;;;5102976;27;9099;-80
2022/10/31 06:22:40;;;;;;;;;18.67;16.67;;;;;;;;5129947;27;9147;-79
2022/10/31 06:25:08;;;;;;;;;16.33;16.33;;;;;;;;5124853;27;9254;-79
2022/10/31 06:27:36;;;;;;;;;16.67;16.33;;;;;;;;5104039;27;9159;-78
2022/10/31 06:30:03;;;;;;;;;16.00;16.00;;;;;;;;5105268;27;9071;-78
2022/10/31 06:32:31;;;;;;;;;16.00;16.00;;;;;;;;5120402;27;9070;-79
2022/10/31 06:34:58;;;;;;;;;19.00;19.00;;;;;;;;5104480;27;9640;-78
2022/10/31 06:37:27;;;;;;;;;16.00;16.00;;;;;;;;5121697;27;9314;-80
2022/10/31 06:39:54;;;;;;;;;19.67;19.67;;;;;;;;5121000;27;9365;-79
2022/10/31 06:42:22;;;;;;;;;21.67;19.67;;;;;;;;5102634;27;9256;-79
2022/10/31 06:44:50;;;;;;;;;16.33;15.00;;;;;;;;5086400;27;9065;-78
2022/10/31 06:47:17;;;;;;;;;21.00;21.00;;;;;;;;5104661;27;9187;-78
2022/10/31 06:49:44;;;;;;;;;18.33;15.33;;;;;;;;5124815;27;9072;-79
2022/10/31 06:52:12;;;;;;;;;16.67;14.67;;;;;;;;5121374;27;9187;-78
2022/10/31 06:54:42;;;;;;;;;16.00;16.00;;;;;;;;5122976;27;10122;-78
2022/10/31 06:57:09;;;;;;;;;17.00;17.00;;;;;;;;5102441;27;9171;-79
2022/10/31 06:59:37;;;;;;;;;16.67;15.00;;;;;;;;5101549;27;10039;-78
2022/10/31 07:02:05;;;;;;;;;20.33;20.33;;;;;;;;5105003;27;9055;-78
2022/10/31 07:04:32;;;;;;;;;19.67;18.33;;;;;;;;5105896;27;9231;-77
2022/10/31 07:07:00;;;;;;;;;16.33;16.33;;;;;;;;5102500;27;9176;-80
2022/10/31 07:09:27;;;;;;;;;21.67;20.00;;;;;;;;5119229;27;9157;-76
2022/10/31 07:11:56;;;;;;;;;21.00;20.00;;;;;;;;5101413;27;9194;-77
2022/10/31 07:14:24;;;;;;;;;22.67;20.67;;;;;;;;5105214;27;9366;-77
2022/10/31 07:16:51;;;;;;;;;27.00;23.67;;;;;;;;5120876;27;9305;-72
2022/10/31 07:19:22;;;;;;;;;29.67;22.00;;;;;;;;5126365;27;9167;-74
2022/10/31 07:21:50;;;;;;;;;25.33;25.33;;;;;;;;5124276;27;9243;-74
2022/10/31 07:24:19;;;;;;;;;23.33;23.33;;;;;;;;5120736;27;10005;-75
2022/10/31 07:26:47;;;;;;;;;18.00;16.67;;;;;;;;5125432;27;9368;-76
2022/10/31 07:29:27;;;;;;;;;21.33;19.67;;;;;;;;5132599;27;9176;-77
2022/10/31 07:31:54;;;;;;;;;27.67;25.00;;;;;;;;5102398;27;9164;-77
2022/10/31 07:34:21;;;;;;;;;29.67;26.67;;;;;;;;5104031;27;9200;-75
2022/10/31 07:36:49;;;;;;;;;29.50;28.50;;;;;;;;5122122;27;9231;-75
2022/10/31 07:39:16;;;;;;;;;25.33;25.33;;;;;;;;5122409;27;9226;-75
2022/10/31 07:41:43;;;;;;;;;23.67;23.67;;;;;;;;5101589;27;9108;-73
2022/10/31 07:44:11;;;;;;;;;28.67;25.33;;;;;;;;5101930;27;9187;-74
2022/10/31 07:46:40;;;;;;;;;32.33;29.00;;;;;;;;5122656;27;9368;-74
2022/10/31 07:49:08;;;;;;;;;30.67;28.67;;;;;;;;5119660;27;9256;-75
2022/10/31 07:51:35;;;;;;;;;30.33;29.00;;;;;;;;5124302;27;9197;-75
2022/10/31 07:54:03;;;;;;;;;25.33;24.67;;;;;;;;5127611;27;9233;-75
2022/10/31 07:56:32;;;;;;;;;39.00;32.00;;;;;;;;5106203;27;9181;-73
2022/10/31 07:59:00;;;;;;;;;29.33;28.00;;;;;;;;5106022;27;9162;-74
2022/10/31 08:01:27;;;;;;;;;27.00;27.00;;;;;;;;5105055;27;8983;-75
2022/10/31 08:03:56;;;;;;;;;28.00;28.00;;;;;;;;5121251;27;9310;-74
2022/10/31 08:06:24;;;;;;;;;24.33;24.33;;;;;;;;5122377;27;9028;-74
2022/10/31 08:08:51;;;;;;;;;26.67;25.00;;;;;;;;5126744;27;8930;-74
2022/10/31 08:11:18;;;;;;;;;30.67;28.67;;;;;;;;5120778;27;9031;-73
2022/10/31 08:13:47;;;;;;;;;29.00;25.33;;;;;;;;5126139;27;9188;-73
2022/10/31 08:16:14;;;;;;;;;28.67;28.67;;;;;;;;5124695;27;9038;-73
2022/10/31 08:18:43;;;;;;;;;27.67;27.67;;;;;;;;5125119;27;9163;-74
2022/10/31 08:21:12;;;;;;;;;22.67;22.67;;;;;;;;5122856;27;9356;-75
2022/10/31 08:23:39;;;;;;;;;28.50;25.50;;;;;;;;5117206;27;9705;-75
2022/10/31 08:26:07;;;;;;;;;28.50;25.00;;;;;;;;5123708;27;9018;-73
2022/10/31 08:28:34;;;;;;;;;24.00;24.00;;;;;;;;5103996;27;8864;-74
2022/10/31 08:31:02;;;;;;;;;32.75;30.75;;;;;;;;5098869;27;8853;-74
2022/10/31 08:33:29;;;;;;;;;23.50;23.50;;;;;;;;5124576;27;8878;-75
2022/10/31 08:35:58;;;;;;;;;25.50;25.00;;;;;;;;5125426;27;8848;-77
2022/10/31 08:38:27;;;;;;;;;32.00;28.75;;;;;;;;5103896;27;8840;-76
2022/10/31 08:40:54;;;;;;;;;30.50;26.00;;;;;;;;5121718;27;8854;-74
2022/10/31 08:43:21;;;;;;;;;38.25;33.00;;;;;;;;5104646;27;8869;-75
2022/10/31 08:45:50;;;;;;;;;30.75;30.25;;;;;;;;5104600;27;8834;-75
2022/10/31 08:48:18;;;;;;;;;34.00;32.50;;;;;;;;5122486;27;9003;-76
2022/10/31 08:50:47;;;;;;;;;32.25;30.50;;;;;;;;5114592;27;8858;-76
2022/10/31 08:53:16;;;;;;;;;39.00;33.33;;;;;;;;5123782;27;8973;-75
2022/10/31 08:55:47;;;;;;;;;37.67;33.33;;;;;;;;5125433;27;9008;-76
2022/10/31 08:58:16;;;;;;;;;39.67;35.00;;;;;;;;5122704;27;9031;-75
2022/10/31 09:00:45;;;;;;;;;32.00;30.00;;;;;;;;5120723;27;8992;-76
2022/10/31 09:03:30;;;;;;;;;39.67;35.00;;;;;;;;5122197;27;9717;-77
2022/10/31 09:06:08;;;;;;;;;34.67;33.00;;;;;;;;5129540;27;9005;-77
2022/10/31 09:08:39;;;;;;;;;39.67;35.33;;;;;;;;5124422;27;8935;-75
2022/10/31 09:11:10;;;;;;;;;30.33;30.33;;;;;;;;5124408;27;9007;-81
2022/10/31 09:13:40;;;;;;;;;37.67;34.33;;;;;;;;5103626;27;9167;-79
2022/10/31 09:16:08;;;;;;;;;38.33;35.00;;;;;;;;5123022;27;9016;-75
2022/10/31 09:18:35;;;;;;;;;38.33;35.67;;;;;;;;5126089;27;8970;-74
2022/10/31 09:21:03;;;;;;;;;40.00;35.00;;;;;;;;5081630;27;9035;-77
2022/10/31 09:23:32;;;;;;;;;38.67;35.00;;;;;;;;5114527;27;8840;-77
2022/10/31 09:26:03;;;;;;;;;34.50;33.00;;;;;;;;5123862;27;8931;-76
2022/10/31 09:28:35;;;;;;;;;33.75;32.75;;;;;;;;5125032;27;8832;-77
2022/10/31 09:31:02;;;;;;;;;35.25;33.00;;;;;;;;5098743;27;8870;-78
2022/10/31 09:33:30;;;;;;;;;33.25;32.50;;;;;;;;5117567;27;9601;-78
2022/10/31 09:36:00;;;;;;;;;31.25;30.00;;;;;;;;5106914;27;8828;-78
2022/10/31 09:38:27;;;;;;;;;33.00;32.75;;;;;;;;5102631;27;8873;-78
2022/10/31 09:41:03;;;;;;;;;34.25;33.00;;;;;;;;5092808;27;8974;-78
2022/10/31 09:43:38;;;;;;;;;36.50;35.00;;;;;;;;5118880;27;8875;-78
2022/10/31 09:46:11;;;;;;;;;26.75;26.75;;;;;;;;5115581;27;8830;-77
2022/10/31 09:49:00;;;;;;;;;35.25;32.50;;;;;;;;5119940;27;8860;-78
2022/10/31 09:51:35;;;;;;;;;34.25;32.00;;;;;;;;5104778;27;8845;-79
2022/10/31 09:54:08;;;;;;;;;38.00;32.75;;;;;;;;5119659;27;8965;-77
2022/10/31 09:56:35;;;;;;;;;32.75;30.50;;;;;;;;5121604;27;8852;-77
2022/10/31 09:59:07;;;;;;;;;29.75;27.25;;;;;;;;5100209;27;9646;-77
2022/10/31 10:01:41;;;;;;;;;34.75;29.75;;;;;;;;5104607;27;8848;-77
2022/10/31 10:04:22;;;;;;;;;32.50;29.75;;;;;;;;5103820;27;8861;-77
2022/10/31 10:06:52;;;;;;;;;28.75;28.00;;;;;;;;5120752;27;8846;-78
2022/10/31 10:09:20;;;;;;;;;28.25;27.25;;;;;;;;5090078;27;8954;-78
2022/10/31 10:11:59;;;;;;;;;26.25;25.75;;;;;;;;5105032;27;8808;-74
2022/10/31 10:14:43;;;;;;;;;30.00;26.50;;;;;;;;5123803;27;8859;-74
2022/10/31 10:17:20;;;;;;;;;19.25;19.25;;;;;;;;5122399;27;8967;-74
2022/10/31 10:20:05;;;;;;;;;28.50;26.50;;;;;;;;5112025;27;8805;-75
2022/10/31 10:22:39;;;;;;;;;26.50;26.50;;;;;;;;5104786;27;8831;-78
2022/10/31 10:25:17;;;;;;;;;27.75;24.25;;;;;;;;5105925;27;8877;-77
2022/10/31 10:28:03;;;;;;;;;21.75;20.00;;;;;;;;5112363;27;8834;-76
2022/10/31 10:30:38;;;;;;;;;24.50;24.50;;;;;;;;5138578;27;8860;-78
2022/10/31 10:33:11;;;;;;;;;22.75;21.25;;;;;;;;5100900;27;8987;-79
2022/10/31 10:35:43;;;;;;;;;22.00;22.00;;;;;;;;5112241;27;8860;-80
2022/10/31 10:38:18;;;;;;;;;30.25;27.50;;;;;;;;5119685;27;8834;-78
2022/10/31 10:40:46;;;;;;;;;26.50;25.00;;;;;;;;5096277;27;9602;-77
2022/10/31 10:43:25;;;;;;;;;28.50;27.00;;;;;;;;5114381;27;8838;-76
2022/10/31 10:49:05;;;;;;;;;27.00;27.00;;;;;;;;5114902;27;8836;-77
2022/10/31 10:51:40;;;;;;;;;27.75;25.00;;;;;;;;5105297;27;8847;-76
2022/10/31 10:54:24;;;;;;;;;29.00;24.00;;;;;;;;5105609;27;8838;-74
2022/10/31 10:57:01;;;;;;;;;24.00;21.25;;;;;;;;5123269;27;8873;-78
2022/10/31 10:59:30;;;;;;;;;25.50;23.00;;;;;;;;5125020;27;8946;-77
2022/10/31 11:02:01;;;;;;;;;20.50;20.50;;;;;;;;5121509;27;8884;-77
2022/10/31 11:04:32;;;;;;;;;21.25;15.75;;;;;;;;5123490;27;8885;-77
2022/10/31 11:07:02;;;;;;;;;19.00;17.25;;;;;;;;5124491;27;8846;-75
2022/10/31 11:09:29;;;;;;;;;21.75;17.50;;;;;;;;5120939;27;8868;-73
2022/10/31 11:11:57;;;;;;;;;18.50;17.50;;;;;;;;5121723;27;8856;-74
2022/10/31 11:14:24;;;;;;;;;15.75;12.75;;;;;;;;5121026;27;8841;-74
2022/10/31 11:16:55;;;;;;;;;13.50;13.50;;;;;;;;5125423;27;8883;-74
2022/10/31 11:19:27;;;;;;;;;16.00;15.75;;;;;;;;5123459;27;8839;-74
2022/10/31 11:21:55;;;;;;;;;18.75;18.75;;;;;;;;5127766;27;9601;-74
2022/10/31 11:24:25;;;;;;;;;21.00;20.40;;;;;;;;5124372;27;8840;-74
2022/10/31 11:27:03;;;;;;;;;16.80;16.40;;;;;;;;5126950;27;8942;-74
2022/10/31 11:29:31;;;;;;;;;17.40;14.00;;;;;;;;5129503;27;8832;-73
2022/10/31 11:31:59;;;;;;;;;11.60;11.60;;;;;;;;5126654;27;8823;-74
2022/10/31 11:34:35;;;;;;;;;15.00;14.20;;;;;;;;5130278;27;9310;-74
2022/10/31 11:37:05;;;;;;;;;15.00;15.00;;;;;;;;5128797;27;8827;-74
2022/10/31 11:39:33;;;;;;;;;17.20;14.20;;;;;;;;5126135;27;8916;-74
2022/10/31 11:42:03;;;;;;;;;14.20;13.80;;;;;;;;5125340;27;8836;-74
2022/10/31 11:44:32;;;;;;;;;13.60;13.60;;;;;;;;5107059;27;8864;-73
2022/10/31 11:47:01;;;;;;;;;14.80;14.80;;;;;;;;5127023;27;8845;-73
2022/10/31 11:49:33;;;;;;;;;15.20;14.20;;;;;;;;5127164;27;8840;-73
2022/10/31 11:52:05;;;;;;;;;15.60;13.80;;;;;;;;5129230;27;8977;-74
2022/10/31 11:54:35;;;;;;;;;12.20;12.20;;;;;;;;5127895;27;8950;-74
2022/10/31 11:57:03;;;;;;;;;18.60;15.60;;;;;;;;5128355;27;8957;-73
2022/10/31 11:59:32;;;;;;;;;9.80;9.80;;;;;;;;5130420;27;8881;-74
2022/10/31 12:02:01;;;;;;;;;6.00;4.20;;;;;;;;5130679;27;8838;-74
2022/10/31 12:04:47;;;;;;;;;9.80;7.80;;;;;;;;5127228;27;8844;-74
2022/10/31 12:07:15;;;;;;;;;11.80;10.00;;;;;;;;5124624;27;8870;-73
2022/10/31 12:09:42;;;;;;;;;8.80;8.80;;;;;;;;5107814;27;9606;-74
2022/10/31 12:12:46;;;;;;;;;9.00;9.00;;;;;;;;5126359;27;8833;-74
2022/10/31 12:15:27;;;;;;;;;13.00;9.80;;;;;;;;5126412;27;8830;-74
2022/10/31 12:18:01;;;;;;;;;13.20;10.20;;;;;;;;5127824;27;8978;-74
2022/10/31 12:20:39;;;;;;;;;10.20;7.60;;;;;;;;5106889;27;8874;-74
2022/10/31 12:23:15;;;;;;;;;9.80;9.80;;;;;;;;5127282;27;8815;-74
2022/10/31 12:25:46;;;;;;;;;10.40;9.20;;;;;;;;5127304;27;8885;-74
2022/10/31 12:28:57;;;;;;;;;10.20;9.80;;;;;;;;5124872;27;8944;-74
2022/10/31 12:31:35;;;;;;;;;8.60;8.60;;;;;;;;5108124;27;8836;-75
2022/10/31 12:34:27;;;;;;;;;9.20;7.20;;;;;;;;5126264;27;8950;-74
2022/10/31 12:37:02;;;;;;;;;7.40;7.40;;;;;;;;5108610;27;8842;-74
2022/10/31 12:39:40;;;;;;;;;8.00;8.00;;;;;;;;5124689;27;8983;-73
2022/10/31 12:42:14;;;;;;;;;10.40;8.00;;;;;;;;5131142;27;8893;-74
2022/10/31 12:45:05;;;;;;;;;13.60;10.40;;;;;;;;5124583;27;9654;-74
2022/10/31 12:47:49;;;;;;;;;10.40;9.00;;;;;;;;5104970;27;8842;-74
2022/10/31 12:50:28;;;;;;;;;7.20;7.20;;;;;;;;5124612;27;8836;-74
2022/10/31 12:53:09;;;;;;;;;11.00;9.80;;;;;;;;5126209;27;8866;-74
2022/10/31 12:55:46;;;;;;;;;8.00;7.60;;;;;;;;5108070;27;8815;-74
2022/10/31 12:58:21;;;;;;;;;8.40;8.00;;;;;;;;5106714;27;8838;-74
2022/10/31 13:00:52;;;;;;;;;9.00;7.40;;;;;;;;5126101;27;8830;-74
2022/10/31 13:03:25;;;;;;;;;10.00;10.00;;;;;;;;5125598;27;9656;-74
2022/10/31 13:05:56;;;;;;;;;10.20;8.40;;;;;;;;5106682;27;8860;-74
2022/10/31 13:08:30;;;;;;;;;11.20;10.80;;;;;;;;5125109;27;8820;-74
2022/10/31 13:11:03;;;;;;;;;8.00;8.00;;;;;;;;5140890;27;8840;-74
2022/10/31 13:13:36;;;;;;;;;9.60;7.80;;;;;;;;5105317;27;8860;-74
2022/10/31 13:16:09;;;;;;;;;10.00;7.80;;;;;;;;5100857;27;8866;-73
2022/10/31 13:18:44;;;;;;;;;6.60;6.60;;;;;;;;5117436;27;8855;-74
2022/10/31 13:21:16;;;;;;;;;8.40;8.40;;;;;;;;5125298;27;8904;-72
2022/10/31 13:23:46;;;;;;;;;8.60;8.60;;;;;;;;5106413;27;8871;-78
2022/10/31 13:26:17;;;;;;;;;10.80;10.40;;;;;;;;5107008;27;8871;-79
2022/10/31 13:28:48;;;;;;;;;7.00;6.20;;;;;;;;5123284;27;8908;-75
2022/10/31 13:31:15;;;;;;;;;6.40;6.40;;;;;;;;5121303;27;8811;-73
2022/10/31 13:33:46;;;;;;;;;8.80;8.00;;;;;;;;5126383;27;8911;-75
2022/10/31 13:36:22;;;;;;;;;7.80;6.80;;;;;;;;5123368;27;8840;-74
2022/10/31 13:38:55;;;;;;;;;8.20;8.20;;;;;;;;5118120;27;9817;-74
2022/10/31 13:41:34;;;;;;;;;11.20;8.20;;;;;;;;5119956;27;8845;-72
2022/10/31 13:44:04;;;;;;;;;9.60;8.60;;;;;;;;5122807;27;8934;-74
2022/10/31 13:46:40;;;;;;;;;10.40;8.80;;;;;;;;5123647;27;8885;-74
2022/10/31 13:49:40;;;;;;;;;9.80;7.00;;;;;;;;5121336;27;8836;-75
2022/10/31 13:52:15;;;;;;;;;10.20;7.40;;;;;;;;5117309;27;8882;-76
2022/10/31 13:54:46;;;;;;;;;8.40;8.40;;;;;;;;5122359;27;8850;-76
2022/10/31 13:57:20;;;;;;;;;9.40;9.40;;;;;;;;5118232;27;8810;-78
2022/10/31 13:59:50;;;;;;;;;9.80;9.20;;;;;;;;5120840;27;8865;-78
2022/10/31 14:02:26;;;;;;;;;7.60;7.60;;;;;;;;5112453;27;8823;-76
2022/10/31 14:04:57;;;;;;;;;7.40;7.40;;;;;;;;5125704;27;8888;-75
2022/10/31 14:07:26;;;;;;;;;4.40;4.40;;;;;;;;5113061;27;8874;-81
2022/10/31 14:10:00;;;;;;;;;9.80;9.60;;;;;;;;5115983;27;8928;-77
2022/10/31 14:12:31;;;;;;;;;8.20;8.00;;;;;;;;5113682;27;8836;-75
2022/10/31 14:15:05;;;;;;;;;9.80;9.80;;;;;;;;5119761;27;9615;-76
2022/10/31 14:17:40;;;;;;;;;6.80;6.80;;;;;;;;5119184;27;8825;-75
2022/10/31 14:20:27;;;;;;;;;13.40;10.60;;;;;;;;5119305;27;8840;-74
2022/10/31 14:22:54;;;;;;;;;11.80;10.60;;;;;;;;5112665;27;8826;-72
2022/10/31 14:25:32;;;;;;;;;9.80;9.80;;;;;;;;5118888;27;8990;-74
2022/10/31 14:28:00;;;;;;;;;11.20;11.20;;;;;;;;5115578;27;8836;-74
2022/10/31 14:30:29;;;;;;;;;8.60;8.60;;;;;;;;5122453;27;8891;-74
2022/10/31 14:33:00;;;;;;;;;9.40;7.60;;;;;;;;5125271;27;8862;-78
2022/10/31 14:35:38;;;;;;;;;9.20;7.40;;;;;;;;5097906;27;8842;-79
2022/10/31 14:38:32;;;;;;;;;11.80;11.80;;;;;;;;5112623;27;8823;-76
2022/10/31 14:41:18;;;;;;;;;10.20;10.20;;;;;;;;5098063;27;8858;-75
2022/10/31 14:44:04;;;;;;;;;11.80;10.60;;;;;;;;5120081;27;8858;-79
2022/10/31 14:46:40;;;;;;;;;12.20;12.20;;;;;;;;5121685;27;8962;-77
2022/10/31 14:49:23;;;;;;;;;11.40;10.00;;;;;;;;5104027;27;9690;-77
2022/10/31 14:51:52;;;;;;;;;14.00;10.00;;;;;;;;5122320;27;8828;-76
2022/10/31 14:54:25;;;;;;;;;12.20;9.80;;;;;;;;5121772;27;8909;-80
2022/10/31 14:57:02;;;;;;;;;10.20;10.20;;;;;;;;5122384;27;8867;-79
2022/10/31 14:59:33;;;;;;;;;8.80;8.80;;;;;;;;5124355;27;8827;-78
2022/10/31 15:02:02;;;;;;;;;11.60;11.60;;;;;;;;5103119;27;8842;-78